Latest Weather Observations for Yarram Airport

IDV60801

Issued at 9:31 pm EDT Wednesday 1 April 2015 (issued every 30 minutes, with the page automatically refreshed every 10 minutes)

About weather observations | Map of weather stations | Latest weather observations for VIC | Other Formats
Station Details ID: 085151 Name: YARRAM AIRPORT Lat: -38.56 Lon: 146.75 Height: 17.9 m
Data from the previous 72 hours. | See also: Recent months at Yarram Airport
Date/Time
EDT
Temp
°C
App
Temp
°C
Dew
Point
Rel
Hum
%
Delta-T
°C
Wind Press
QNH
hPa
Press
MSL
hPa
Rain
since 9 am
mm
Dir
 
Spd
km/h
Gust
km/h
Spd
kts
Gust
kts
01/09:30pm 20.8 19.7 14.2 66 3.8 NE 13 15 7 8 1012.1 1012.1 0.0
01/09:00pm 21.1 19.9 14.0 64 4.1 NE 13 15 7 8 1012.2 1012.2 0.0
01/08:30pm 21.6 20.6 14.7 65 4.1 ENE 13 15 7 8 1012.3 1012.3 0.0
01/08:00pm 22.3 21.4 14.9 63 4.4 NE 13 17 7 9 1012.4 1012.4 0.0
01/07:30pm 21.1 20.8 14.5 66 3.9 NE 9 11 5 6 1012.6 1012.6 0.0
01/07:00pm 22.0 21.3 14.4 62 4.5 ENE 11 13 6 7 1012.5 1012.5 0.0
01/06:30pm 23.7 23.8 14.4 56 5.5 E 7 9 4 5 1012.6 1012.6 0.0
01/06:00pm 25.4 26.8 16.5 58 5.5 NE 4 6 2 3 1012.6 1012.6 0.0
01/05:30pm 26.2 26.8 15.9 53 6.3 NW 7 9 4 5 1012.6 1012.6 0.0
01/05:00pm 26.3 26.0 14.4 48 7.1 NW 9 13 5 7 1012.6 1012.6 0.0
01/04:30pm 27.0 26.1 13.7 44 7.9 NW 11 15 6 8 1012.7 1012.7 0.0
01/04:00pm 27.4 25.4 12.6 40 8.6 NNW 15 20 8 11 1013.1 1013.1 0.0
01/03:30pm 27.9 25.5 12.7 39 8.9 NNW 17 22 9 12 1013.6 1013.6 0.0
01/03:00pm 28.2 25.2 12.1 37 9.3 NW 19 24 10 13 1014.1 1014.1 0.0
01/02:30pm 27.9 24.5 10.6 34 9.8 NW 19 28 10 15 1014.2 1014.2 0.0
01/02:00pm 29.5 27.5 11.5 33 10.4 N 13 26 7 14 1014.5 1014.5 0.0
01/01:30pm 28.5 27.0 10.7 33 10.1 N 9 17 5 9 1015.2 1015.2 0.0
01/01:00pm 28.2 26.5 11.3 35 9.7 N 11 24 6 13 1015.9 1015.9 0.0
01/12:30pm 27.1 25.0 12.3 39 8.6 N 15 20 8 11 1016.5 1016.5 0.0
01/12:00pm 26.2 23.1 11.5 40 8.4 N 19 26 10 14 1016.9 1016.9 0.0
01/11:30am 26.5 24.0 12.2 41 8.2 N 17 22 9 12 1017.3 1017.3 0.0
01/11:00am 26.1 22.5 10.7 38 8.6 N 20 26 11 14 1017.8 1017.8 0.0
01/10:30am 24.6 21.3 9.7 39 8.2 N 17 24 9 13 1018.2 1018.2 0.0
01/10:00am 21.6 20.1 13.0 58 4.9 N 13 15 7 8 1018.6 1018.6 0.0
01/09:30am 21.6 22.0 16.3 72 3.2 N 9 11 5 6 1018.9 1018.9 0.0
01/09:00am 18.9 18.4 13.7 72 3.0 NNW 9 11 5 6 1019.1 1019.1 0.0
01/08:30am 14.3 13.5 14.1 99 0.1 N 11 13 6 7 1019.0 1019.0 0.0
01/08:00am 11.8 12.3 11.6 99 0.1 CALM 0 0 0 0 1018.9 1018.9 0.0
01/07:30am 11.3 11.3 11.0 98 0.2 SW 2 7 1 4 1018.9 1018.9 0.0
01/07:00am 11.4 10.1 11.4 100 0.0 NNE 9 13 5 7 1018.8 1018.8 0.0
01/06:30am 11.0 11.3 11.0 100 0.0 CALM 0 0 0 0 1018.8 1018.8 0.0
01/06:00am 10.4 9.4 10.4 100 0.0 NNE 6 9 3 5 1019.0 1019.0 0.0
01/05:30am 10.1 10.2 10.1 100 0.0 CALM 0 0 0 0 1019.0 1019.0 0.0
01/05:00am 10.7 10.9 10.7 100 0.0 CALM 0 0 0 0 1019.1 1019.1 0.0
01/04:30am 10.4 9.2 10.4 100 0.0 SW 7 9 4 5 1019.2 1019.2 0.0
01/04:00am 11.3 10.3 11.1 99 0.1 WSW 7 9 4 5 1019.6 1019.6 0.0
01/03:30am 11.7 11.0 11.5 99 0.1 WSW 6 7 3 4 1019.9 1019.9 0.0
01/03:00am 11.1 9.6 10.6 97 0.3 WSW 9 13 5 7 1020.4 1020.4 0.0
01/02:30am 12.0 11.9 10.9 93 0.6 NW 2 7 1 4 1020.8 1020.8 0.0
01/02:00am 14.5 13.5 13.5 94 0.6 NE 11 15 6 8 1021.2 1021.2 0.0
01/01:30am 14.6 13.6 13.5 93 0.6 NE 11 15 6 8 1021.5 1021.5 0.0
01/01:00am 14.8 13.7 14.3 97 0.3 NE 13 15 7 8 1021.8 1021.8 0.0
01/12:30am 15.0 14.1 14.8 99 0.1 NE 13 17 7 9 1022.1 1022.1 0.0
01/12:00am 15.3 13.8 15.3 100 0.0 NE 17 20 9 11 1022.5 1022.5 0.0
 
Date/Time
EDT
Temp
°C
App
Temp
°C
Dew
Point
Rel
Hum
%
Delta-T
°C
Wind Press
QNH
hPa
Press
MSL
hPa
Rain
since 9 am
mm
Dir
 
Spd
km/h
Gust
km/h
Spd
kts
Gust
kts
31/11:30pm 14.3 13.6 14.3 100 0.0 ENE 11 15 6 8 1022.9 1022.9 0.0
31/11:00pm 13.8 12.9 13.6 99 0.1 NE 11 13 6 7 1023.2 1023.2 0.0
31/10:30pm 14.2 13.8 14.0 99 0.1 NE 9 11 5 6 1023.4 1023.4 0.0
31/10:00pm 14.5 14.2 14.3 99 0.1 ENE 9 11 5 6 1023.6 1023.6 0.0
31/09:30pm 14.2 14.0 13.7 97 0.3 NE 7 9 4 5 1023.7 1023.7 0.0
31/09:00pm 15.2 14.6 14.7 97 0.3 NE 11 13 6 7 1023.6 1023.6 0.0
31/08:30pm 15.1 14.4 14.3 95 0.5 ENE 11 13 6 7 1023.7 1023.7 0.0
31/08:00pm 15.4 15.1 14.3 93 0.6 ENE 9 11 5 6 1023.5 1023.5 0.0
31/07:30pm 16.0 15.4 14.5 91 0.9 E 11 13 6 7 1023.4 1023.4 0.0
31/07:00pm 17.3 16.4 14.9 86 1.4 E 13 17 7 9 1023.4 1023.4 0.0
31/06:30pm 18.2 16.6 15.1 82 1.8 E 17 20 9 11 1023.1 1023.1 0.0
31/06:00pm 19.1 17.6 15.2 78 2.3 E 17 24 9 13 1022.9 1022.9 0.0
31/05:30pm 19.9 18.1 15.5 76 2.6 E 19 26 10 14 1022.9 1022.9 0.0
31/05:00pm 20.5 19.0 15.3 72 3.1 E 17 24 9 13 1023.0 1023.0 0.0
31/04:30pm 20.7 18.7 15.0 70 3.4 E 19 26 10 14 1023.3 1023.3 0.0
31/04:00pm 21.3 19.2 15.2 68 3.6 E 20 28 11 15 1023.2 1023.2 0.0
31/03:30pm 21.8 19.8 15.4 67 3.8 E 20 30 11 16 1023.1 1023.1 0.0
31/03:00pm 21.8 19.3 15.2 66 3.9 E 22 30 12 16 1023.1 1023.1 0.0
31/02:30pm 22.4 19.8 15.0 63 4.4 E 22 30 12 16 1023.3 1023.3 0.0
31/02:00pm 22.4 20.0 14.5 61 4.6 E 20 28 11 15 1023.8 1023.8 0.0
31/01:30pm 21.9 19.9 15.5 67 3.8 ESE 20 28 11 15 1024.1 1024.1 0.0
31/01:00pm 22.8 21.9 13.8 57 5.2 ENE 11 19 6 10 1024.5 1024.5 0.0
31/12:30pm 22.0 21.4 13.6 59 4.9 ENE 9 15 5 8 1025.2 1025.2 0.0
31/12:00pm 21.5 20.5 13.4 60 4.6 E 11 15 6 8 1026.0 1026.0 0.0
31/11:30am 20.0 19.1 12.5 62 4.2 NE 9 15 5 8 1026.7 1026.7 0.0
31/11:00am 18.5 18.7 12.9 70 3.1 SE 4 7 2 4 1027.0 1027.0 0.0
31/10:30am 16.2 17.3 13.5 84 1.5 CALM 0 0 0 0 1027.0 1027.0 0.0
31/10:00am 14.9 16.4 14.6 98 0.2 CALM 0 4 0 2 1027.3 1027.2 0.0
31/09:30am 13.3 13.2 13.3 100 0.0 WNW 6 7 3 4 1027.4 1027.3 0.0
31/09:00am 11.6 12.1 11.6 100 0.0 CALM 0 0 0 0 1027.2 1027.1 0.0
31/08:30am 9.5 9.4 9.5 100 0.0 CALM 0 0 0 0 1026.8 1026.8 0.0
31/08:00am 7.0 6.3 7.0 100 0.0 CALM 0 0 0 0 1026.4 1026.4 0.0
31/07:30am 5.8 4.8 5.8 100 0.0 CALM 0 0 0 0 1026.1 1026.1 0.0
31/07:00am 7.0 6.3 7.0 100 0.0 CALM 0 0 0 0 1025.9 1025.9 0.0
31/06:30am 6.8 6.1 6.8 100 0.0 CALM 0 0 0 0 1025.7 1025.7 0.0
31/06:00am 7.3 6.7 7.3 100 0.0 CALM 0 0 0 0 1025.5 1025.5 0.0
31/05:30am 6.8 6.1 6.8 100 0.0 CALM 0 0 0 0 1025.5 1025.5 0.0
31/05:00am 7.1 6.4 7.1 100 0.0 CALM 0 0 0 0 1025.5 1025.5 0.0
31/04:30am 7.7 6.8 7.7 100 0.0 N 2 6 1 3 1025.4 1025.4 0.0
31/04:00am 7.6 5.9 7.6 100 0.0 N 6 7 3 4 1025.6 1025.6 0.0
31/03:30am 7.5 5.8 7.5 100 0.0 NW 6 7 3 4 1025.8 1025.8 0.0
31/03:00am 8.8 7.4 8.8 100 0.0 W 6 7 3 4 1026.0 1026.0 0.0
31/02:30am 8.7 8.4 8.7 100 0.0 CALM 0 0 0 0 1026.1 1026.1 0.0
31/02:00am 10.1 10.2 10.1 100 0.0 CALM 0 0 0 0 1026.2 1026.2 0.0
31/01:30am 9.5 8.3 9.5 100 0.0 WSW 6 7 3 4 1026.2 1026.2 0.0
31/01:00am 9.4 8.0 9.4 100 0.0 NE 7 9 4 5 1026.2 1026.2 0.0
31/12:30am 10.1 10.2 10.1 100 0.0 CALM 0 0 0 0 1026.3 1026.3 0.0
31/12:00am 10.7 10.9 10.4 98 0.2 CALM 0 0 0 0 1026.5 1026.5 0.0
 
Date/Time
EDT
Temp
°C
App
Temp
°C
Dew
Point
Rel
Hum
%
Delta-T
°C
Wind Press
QNH
hPa
Press
MSL
hPa
Rain
since 9 am
mm
Dir
 
Spd
km/h
Gust
km/h
Spd
kts
Gust
kts
30/11:30pm 11.2 10.4 10.9 98 0.2 NNW 6 9 3 5 1026.7 1026.7 0.0
30/11:00pm 11.9 10.3 11.6 98 0.2 NNE 11 13 6 7 1026.7 1026.7 0.0
30/10:30pm 10.8 8.8 10.3 97 0.3 W 11 13 6 7 1026.7 1026.7 0.0
30/10:00pm 11.9 11.1 11.1 95 0.4 WNW 6 7 3 4 1026.7 1026.7 0.0
30/09:30pm 13.1 12.7 12.5 96 0.3 WNW 6 7 3 4 1026.6 1026.6 0.0
30/09:00pm 12.5 11.6 11.4 93 0.6 NNW 7 9 4 5 1026.6 1026.6 0.0
30/08:30pm 12.7 11.8 10.8 88 1.0 WNW 6 7 3 4 1026.3 1026.3 0.0
30/08:00pm 14.0 14.6 11.9 87 1.1 CALM 0 0 0 0 1025.9 1025.9 0.0
30/07:30pm 14.9 13.5 12.2 84 1.5 SW 11 13 6 7 1025.2 1025.2 0.0
30/07:00pm 16.9 15.1 12.2 74 2.6 SSW 13 15 7 8 1024.8 1024.8 0.0
30/06:30pm 18.7 16.0 11.8 64 3.8 SSW 17 20 9 11 1024.4 1024.4 0.0
30/06:00pm 19.5 16.3 11.8 61 4.2 SSW 20 26 11 14 1024.0 1024.0 0.0
30/05:30pm 20.5 17.3 13.2 63 4.2 SSW 22 30 12 16 1023.8 1023.8 0.0
30/05:00pm 20.5 16.6 12.2 59 4.6 SSW 24 30 13 16 1023.4 1023.4 0.0
30/04:30pm 21.3 17.7 13.0 59 4.7 SW 24 32 13 17 1023.3 1023.3 0.0
30/04:00pm 21.3 17.7 13.0 59 4.7 SSW 24 33 13 18 1023.3 1023.3 0.0
30/03:30pm 22.1 18.9 13.2 57 5.1 SSW 22 30 12 16 1023.3 1023.3 0.0
30/03:00pm 21.6 18.0 13.2 59 4.8 SSW 24 35 13 19 1023.3 1023.3 0.0
30/02:30pm 21.6 18.6 12.5 56 5.2 SSW 20 30 11 16 1023.3 1023.3 0.0
30/02:00pm 22.0 19.1 12.3 54 5.5 SSW 19 28 10 15 1023.4 1023.4 0.0
30/01:30pm 21.5 18.8 12.9 58 4.9 SSW 19 24 10 13 1023.7 1023.7 0.0
30/01:00pm 21.9 19.8 12.5 55 5.3 SSW 15 24 8 13 1023.7 1023.7 0.0
30/12:30pm 21.9 20.2 11.3 51 5.9 SW 11 15 6 8 1023.9 1023.9 0.0
30/12:00pm 21.7 21.1 12.3 55 5.3 SSW 7 15 4 8 1024.1 1024.1 0.0
30/11:30am 20.8 19.9 11.2 54 5.3 WSW 7 15 4 8 1024.4 1024.4 0.0
30/11:00am 19.8 19.1 11.3 58 4.6 SW 6 11 3 6 1024.5 1024.5 0.0
30/10:30am 19.6 19.9 10.9 57 4.7 CALM 0 0 0 0 1024.5 1024.5 0.0
30/10:00am 17.1 18.0 12.8 76 2.4 CALM 0 0 0 0 1024.5 1024.5 0.0
30/09:30am 14.5 15.5 13.2 92 0.7 CALM 0 0 0 0 1024.3 1024.3 0.0
30/09:00am 12.5 13.3 12.5 100 0.0 CALM 0 0 0 0 1024.1 1024.1 0.0
30/08:30am 10.3 9.1 10.3 100 0.0 N 7 9 4 5 1023.8 1023.8 0.0
30/08:00am 7.6 5.9 7.6 100 0.0 NNW 6 6 3 3 1023.7 1023.7 0.0
30/07:30am 6.8 4.9 6.8 100 0.0 N 6 7 3 4 1023.3 1023.3 0.0
30/07:00am 5.9 3.6 5.9 100 0.0 NNW 7 9 4 5 1023.1 1023.1 0.0
30/06:30am 7.5 5.6 7.5 100 0.0 NNW 7 9 4 5 1022.9 1022.9 0.0
30/06:00am 6.3 4.3 6.3 100 0.0 NW 6 7 3 4 1022.8 1022.8 0.0
30/05:30am 7.0 5.2 7.0 100 0.0 NW 6 7 3 4 1022.7 1022.7 0.0
30/05:00am 8.1 6.3 8.1 100 0.0 W 7 9 4 5 1022.6 1022.6 0.0
30/04:30am 7.7 6.4 7.6 99 0.0 WSW 4 11 2 6 1022.6 1022.6 0.0
30/04:00am 8.6 7.0 8.6 100 0.0 NNE 7 7 4 4 1022.6 1022.6 0.0
30/03:30am 8.6 7.0 8.6 100 0.0 N 7 9 4 5 1022.7 1022.7 0.0
30/03:00am 7.7 5.1 7.6 99 0.0 N 11 13 6 7 1022.9 1022.9 0.0
30/02:30am 8.7 6.7 8.6 99 0.0 N 9 9 5 5 1023.3 1023.3 0.0
30/02:00am 8.7 8.3 8.4 98 0.1 CALM 0 0 0 0 1023.6 1023.6 0.0
30/01:30am 8.4 7.9 7.8 96 0.3 CALM 0 0 0 0 1023.6 1023.6 0.0
30/01:00am 9.7 9.5 9.1 96 0.3 CALM 0 0 0 0 1023.7 1023.7 0.0
30/12:30am 9.8 8.4 9.0 95 0.4 WNW 6 9 3 5 1023.6 1023.6 0.0
30/12:00am 9.2 6.9 7.6 90 0.8 NNW 9 11 5 6 1023.6 1023.6 0.0
 
Date/Time
EDT
Temp
°C
App
Temp
°C
Dew
Point
Rel
Hum
%
Delta-T
°C
Wind Press
QNH
hPa
Press
MSL
hPa
Rain
since 9 am
mm
Dir
 
Spd
km/h
Gust
km/h
Spd
kts
Gust
kts
29/11:30pm 10.7 9.2 9.1 90 0.8 NW 7 9 4 5 1023.8 1023.8 0.0
29/11:00pm 11.0 9.2 9.3 89 0.8 NNW 9 9 5 5 1024.1 1024.1 0.0
29/10:30pm 11.5 9.9 10.1 91 0.7 NW 9 11 5 6 1024.0 1024.0 0.0
29/10:00pm 11.2 9.5 9.9 92 0.7 N 9 11 5 6 1023.9 1023.9 0.0

Other Formats:

Comma delimited format used in spreadsheet applications
http://www.bom.gov.au/fwo/IDV60801/IDV60801.95890.axf

JavaScript Object Notation format (JSON) in row-major order
http://www.bom.gov.au/fwo/IDV60801/IDV60801.95890.json